sensor_id;sensor_type;location;lat;lon;timestamp;temperature;humidity
6110;DHT22;3085;49.444;11.054;2024-03-25T00:00:11;5.40;99.90
6110;DHT22;3085;49.444;11.054;2024-03-25T00:02:37;5.40;99.90
6110;DHT22;3085;49.444;11.054;2024-03-25T00:05:04;5.40;99.90
6110;DHT22;3085;49.444;11.054;2024-03-25T00:07:30;5.40;99.90
6110;DHT22;3085;49.444;11.054;2024-03-25T00:09:57;5.40;99.90
6110;DHT22;3085;49.444;11.054;2024-03-25T00:12:24;5.40;99.90
6110;DHT22;3085;49.444;11.054;2024-03-25T00:14:51;5.40;99.90
6110;DHT22;3085;49.444;11.054;2024-03-25T00:17:18;5.50;99.90
6110;DHT22;3085;49.444;11.054;2024-03-25T00:19:46;5.50;99.90
6110;DHT22;3085;49.444;11.054;2024-03-25T00:22:16;5.40;99.90
6110;DHT22;3085;49.444;11.054;2024-03-25T00:24:43;5.50;99.90
6110;DHT22;3085;49.444;11.054;2024-03-25T00:27:09;5.50;99.90
6110;DHT22;3085;49.444;11.054;2024-03-25T00:29:35;5.50;99.90
6110;DHT22;3085;49.444;11.054;2024-03-25T00:32:01;5.50;99.90
6110;DHT22;3085;49.444;11.054;2024-03-25T00:34:29;5.50;99.90
6110;DHT22;3085;49.444;11.054;2024-03-25T00:36:55;5.50;99.90
6110;DHT22;3085;49.444;11.054;2024-03-25T00:39:22;5.50;99.90
6110;DHT22;3085;49.444;11.054;2024-03-25T00:41:48;5.50;99.90
6110;DHT22;3085;49.444;11.054;2024-03-25T00:44:14;5.50;99.90
6110;DHT22;3085;49.444;11.054;2024-03-25T00:46:40;5.50;99.90
6110;DHT22;3085;49.444;11.054;2024-03-25T00:49:07;5.50;99.90
6110;DHT22;3085;49.444;11.054;2024-03-25T00:51:35;5.60;99.90
6110;DHT22;3085;49.444;11.054;2024-03-25T00:54:02;5.60;99.90
6110;DHT22;3085;49.444;11.054;2024-03-25T00:56:28;5.50;99.90
6110;DHT22;3085;49.444;11.054;2024-03-25T00:58:55;5.60;99.90
6110;DHT22;3085;49.444;11.054;2024-03-25T01:01:22;5.50;99.90
6110;DHT22;3085;49.444;11.054;2024-03-25T01:03:49;5.50;99.90
6110;DHT22;3085;49.444;11.054;2024-03-25T01:06:15;5.50;99.90
6110;DHT22;3085;49.444;11.054;2024-03-25T01:08:43;5.60;99.90
6110;DHT22;3085;49.444;11.054;2024-03-25T01:11:09;5.50;99.90
6110;DHT22;3085;49.444;11.054;2024-03-25T01:13:35;5.50;99.90
6110;DHT22;3085;49.444;11.054;2024-03-25T01:16:01;5.60;99.90
6110;DHT22;3085;49.444;11.054;2024-03-25T01:18:28;5.60;99.90
6110;DHT22;3085;49.444;11.054;2024-03-25T01:20:54;5.50;99.90
6110;DHT22;3085;49.444;11.054;2024-03-25T01:23:21;5.60;99.90
6110;DHT22;3085;49.444;11.054;2024-03-25T01:25:48;5.60;99.90
6110;DHT22;3085;49.444;11.054;2024-03-25T01:28:14;5.60;99.90
6110;DHT22;3085;49.444;11.054;2024-03-25T01:30:40;5.60;99.90
6110;DHT22;3085;49.444;11.054;2024-03-25T01:33:07;5.60;99.90
6110;DHT22;3085;49.444;11.054;2024-03-25T01:35:33;5.60;99.90
6110;DHT22;3085;49.444;11.054;2024-03-25T01:38:01;5.60;99.90
6110;DHT22;3085;49.444;11.054;2024-03-25T01:40:27;5.60;99.90
6110;DHT22;3085;49.444;11.054;2024-03-25T01:42:58;5.60;99.90
6110;DHT22;3085;49.444;11.054;2024-03-25T01:45:24;5.70;99.90
6110;DHT22;3085;49.444;11.054;2024-03-25T01:47:51;5.60;99.90
6110;DHT22;3085;49.444;11.054;2024-03-25T01:50:18;5.60;99.90
6110;DHT22;3085;49.444;11.054;2024-03-25T01:52:45;5.70;99.90
6110;DHT22;3085;49.444;11.054;2024-03-25T01:55:15;5.60;99.90
6110;DHT22;3085;49.444;11.054;2024-03-25T01:57:44;5.60;99.90
6110;DHT22;3085;49.444;11.054;2024-03-25T02:00:12;5.60;99.90
6110;DHT22;3085;49.444;11.054;2024-03-25T02:02:42;5.70;99.90
6110;DHT22;3085;49.444;11.054;2024-03-25T02:05:09;5.70;99.90
6110;DHT22;3085;49.444;11.054;2024-03-25T02:07:36;5.60;99.90
6110;DHT22;3085;49.444;11.054;2024-03-25T02:10:03;5.60;99.90
6110;DHT22;3085;49.444;11.054;2024-03-25T02:12:30;5.60;99.90
6110;DHT22;3085;49.444;11.054;2024-03-25T02:14:56;5.60;99.90
6110;DHT22;3085;49.444;11.054;2024-03-25T02:17:25;5.60;99.90
6110;DHT22;3085;49.444;11.054;2024-03-25T02:19:50;5.60;99.90
6110;DHT22;3085;49.444;11.054;2024-03-25T02:22:17;5.60;99.90
6110;DHT22;3085;49.444;11.054;2024-03-25T02:24:45;5.60;99.90
6110;DHT22;3085;49.444;11.054;2024-03-25T02:27:14;5.60;99.90
6110;DHT22;3085;49.444;11.054;2024-03-25T02:29:40;5.60;99.90
6110;DHT22;3085;49.444;11.054;2024-03-25T02:32:07;5.60;99.90
6110;DHT22;3085;49.444;11.054;2024-03-25T02:34:36;5.60;99.90
6110;DHT22;3085;49.444;11.054;2024-03-25T02:37:03;5.60;99.90
6110;DHT22;3085;49.444;11.054;2024-03-25T02:39:29;5.70;99.90
6110;DHT22;3085;49.444;11.054;2024-03-25T02:41:56;5.60;99.90
6110;DHT22;3085;49.444;11.054;2024-03-25T02:44:23;5.70;99.90
6110;DHT22;3085;49.444;11.054;2024-03-25T02:46:50;5.70;99.90
6110;DHT22;3085;49.444;11.054;2024-03-25T02:49:16;5.60;99.90
6110;DHT22;3085;49.444;11.054;2024-03-25T02:51:42;5.70;99.90
6110;DHT22;3085;49.444;11.054;2024-03-25T02:54:08;5.70;99.90
6110;DHT22;3085;49.444;11.054;2024-03-25T02:56:35;5.70;99.90
6110;DHT22;3085;49.444;11.054;2024-03-25T02:59:01;5.60;99.90
6110;DHT22;3085;49.444;11.054;2024-03-25T03:01:29;5.60;99.90
6110;DHT22;3085;49.444;11.054;2024-03-25T03:03:54;5.60;99.90
6110;DHT22;3085;49.444;11.054;2024-03-25T03:06:21;5.60;99.90
6110;DHT22;3085;49.444;11.054;2024-03-25T03:08:48;5.60;99.90
6110;DHT22;3085;49.444;11.054;2024-03-25T03:11:14;5.60;99.90
6110;DHT22;3085;49.444;11.054;2024-03-25T03:13:40;5.60;99.90
6110;DHT22;3085;49.444;11.054;2024-03-25T03:16:07;5.60;99.90
6110;DHT22;3085;49.444;11.054;2024-03-25T03:18:34;5.60;99.90
6110;DHT22;3085;49.444;11.054;2024-03-25T03:21:01;5.60;99.90
6110;DHT22;3085;49.444;11.054;2024-03-25T03:23:27;5.60;99.90
6110;DHT22;3085;49.444;11.054;2024-03-25T03:25:53;5.60;99.90
6110;DHT22;3085;49.444;11.054;2024-03-25T03:28:19;5.60;99.90
6110;DHT22;3085;49.444;11.054;2024-03-25T03:30:46;5.50;99.90
6110;DHT22;3085;49.444;11.054;2024-03-25T03:33:11;5.50;99.90
6110;DHT22;3085;49.444;11.054;2024-03-25T03:35:39;5.40;99.90
6110;DHT22;3085;49.444;11.054;2024-03-25T03:38:05;5.50;99.90
6110;DHT22;3085;49.444;11.054;2024-03-25T03:40:32;5.50;99.90
6110;DHT22;3085;49.444;11.054;2024-03-25T03:42:58;5.40;99.90
6110;DHT22;3085;49.444;11.054;2024-03-25T03:45:25;5.40;99.90
6110;DHT22;3085;49.444;11.054;2024-03-25T03:47:51;5.40;99.90
6110;DHT22;3085;49.444;11.054;2024-03-25T03:50:17;5.30;99.90
6110;DHT22;3085;49.444;11.054;2024-03-25T03:52:44;5.30;99.90
6110;DHT22;3085;49.444;11.054;2024-03-25T03:55:11;5.40;99.90
6110;DHT22;3085;49.444;11.054;2024-03-25T03:57:36;5.30;99.90
6110;DHT22;3085;49.444;11.054;2024-03-25T04:00:03;5.30;99.90
6110;DHT22;3085;49.444;11.054;2024-03-25T04:02:30;5.20;99.90
6110;DHT22;3085;49.444;11.054;2024-03-25T04:04:56;5.20;99.90
6110;DHT22;3085;49.444;11.054;2024-03-25T04:07:22;5.20;99.90
6110;DHT22;3085;49.444;11.054;2024-03-25T04:09:53;5.20;99.90
6110;DHT22;3085;49.444;11.054;2024-03-25T04:12:19;5.20;99.90
6110;DHT22;3085;49.444;11.054;2024-03-25T04:14:46;5.20;99.90
6110;DHT22;3085;49.444;11.054;2024-03-25T04:17:12;5.20;99.90
6110;DHT22;3085;49.444;11.054;2024-03-25T04:19:39;5.10;99.90
6110;DHT22;3085;49.444;11.054;2024-03-25T04:22:04;5.20;99.90
6110;DHT22;3085;49.444;11.054;2024-03-25T04:24:32;5.10;99.90
6110;DHT22;3085;49.444;11.054;2024-03-25T04:27:01;5.10;99.90
6110;DHT22;3085;49.444;11.054;2024-03-25T04:29:28;5.00;99.90
6110;DHT22;3085;49.444;11.054;2024-03-25T04:31:54;5.00;99.90
6110;DHT22;3085;49.444;11.054;2024-03-25T04:34:21;5.00;99.90
6110;DHT22;3085;49.444;11.054;2024-03-25T04:36:48;5.00;99.90
6110;DHT22;3085;49.444;11.054;2024-03-25T04:39:15;5.00;99.90
6110;DHT22;3085;49.444;11.054;2024-03-25T04:41:41;4.90;99.90
6110;DHT22;3085;49.444;11.054;2024-03-25T04:44:08;4.90;99.90
6110;DHT22;3085;49.444;11.054;2024-03-25T04:46:34;4.90;99.90
6110;DHT22;3085;49.444;11.054;2024-03-25T04:48:59;4.90;99.90
6110;DHT22;3085;49.444;11.054;2024-03-25T04:51:25;4.90;99.90
6110;DHT22;3085;49.444;11.054;2024-03-25T04:53:51;4.90;99.90
6110;DHT22;3085;49.444;11.054;2024-03-25T04:56:17;4.90;99.90
6110;DHT22;3085;49.444;11.054;2024-03-25T04:58:42;4.90;99.90
6110;DHT22;3085;49.444;11.054;2024-03-25T05:01:09;4.90;99.90
6110;DHT22;3085;49.444;11.054;2024-03-25T05:03:35;4.80;99.90
6110;DHT22;3085;49.444;11.054;2024-03-25T05:06:01;4.90;99.90
6110;DHT22;3085;49.444;11.054;2024-03-25T05:08:27;4.80;99.90
6110;DHT22;3085;49.444;11.054;2024-03-25T05:10:52;4.90;99.90
6110;DHT22;3085;49.444;11.054;2024-03-25T05:13:18;4.90;99.90
6110;DHT22;3085;49.444;11.054;2024-03-25T05:15:49;4.90;99.90
6110;DHT22;3085;49.444;11.054;2024-03-25T05:18:16;4.90;99.90
6110;DHT22;3085;49.444;11.054;2024-03-25T05:20:42;4.80;99.90
6110;DHT22;3085;49.444;11.054;2024-03-25T05:23:08;4.90;99.90
6110;DHT22;3085;49.444;11.054;2024-03-25T05:25:34;4.80;99.90
6110;DHT22;3085;49.444;11.054;2024-03-25T05:28:00;5.00;99.90
6110;DHT22;3085;49.444;11.054;2024-03-25T05:30:26;4.90;99.90
6110;DHT22;3085;49.444;11.054;2024-03-25T05:32:52;4.90;99.90
6110;DHT22;3085;49.444;11.054;2024-03-25T05:35:19;4.90;99.90
6110;DHT22;3085;49.444;11.054;2024-03-25T05:37:45;4.90;99.90
6110;DHT22;3085;49.444;11.054;2024-03-25T05:40:11;5.00;99.90
6110;DHT22;3085;49.444;11.054;2024-03-25T05:42:37;5.00;99.90
6110;DHT22;3085;49.444;11.054;2024-03-25T05:45:03;5.00;99.90
6110;DHT22;3085;49.444;11.054;2024-03-25T05:47:29;4.90;99.90
6110;DHT22;3085;49.444;11.054;2024-03-25T05:49:55;4.90;99.90
6110;DHT22;3085;49.444;11.054;2024-03-25T05:52:22;4.80;99.90
6110;DHT22;3085;49.444;11.054;2024-03-25T05:54:48;4.80;99.90
6110;DHT22;3085;49.444;11.054;2024-03-25T05:57:14;4.70;99.90
6110;DHT22;3085;49.444;11.054;2024-03-25T05:59:39;4.80;99.90
6110;DHT22;3085;49.444;11.054;2024-03-25T06:02:05;4.70;99.90
6110;DHT22;3085;49.444;11.054;2024-03-25T06:04:31;4.80;99.90
6110;DHT22;3085;49.444;11.054;2024-03-25T06:06:57;4.70;99.90
6110;DHT22;3085;49.444;11.054;2024-03-25T06:09:24;4.80;99.90
6110;DHT22;3085;49.444;11.054;2024-03-25T06:11:49;4.70;99.90
6110;DHT22;3085;49.444;11.054;2024-03-25T06:14:15;4.80;99.90
6110;DHT22;3085;49.444;11.054;2024-03-25T06:16:41;4.70;99.90
6110;DHT22;3085;49.444;11.054;2024-03-25T06:19:07;4.80;99.90
6110;DHT22;3085;49.444;11.054;2024-03-25T06:21:33;4.80;99.90
6110;DHT22;3085;49.444;11.054;2024-03-25T06:23:58;4.80;99.90
6110;DHT22;3085;49.444;11.054;2024-03-25T06:26:25;4.80;99.90
6110;DHT22;3085;49.444;11.054;2024-03-25T06:28:51;4.80;99.90
6110;DHT22;3085;49.444;11.054;2024-03-25T06:31:17;4.70;99.90
6110;DHT22;3085;49.444;11.054;2024-03-25T06:34:01;4.70;99.90
6110;DHT22;3085;49.444;11.054;2024-03-25T06:36:45;4.80;99.90
6110;DHT22;3085;49.444;11.054;2024-03-25T06:39:11;4.80;99.90
6110;DHT22;3085;49.444;11.054;2024-03-25T06:41:38;5.20;99.90
6110;DHT22;3085;49.444;11.054;2024-03-25T06:44:04;4.80;99.90
6110;DHT22;3085;49.444;11.054;2024-03-25T06:46:30;4.90;99.90
6110;DHT22;3085;49.444;11.054;2024-03-25T06:48:56;5.10;99.90
6110;DHT22;3085;49.444;11.054;2024-03-25T06:51:22;5.30;99.90
6110;DHT22;3085;49.444;11.054;2024-03-25T06:53:47;5.20;99.90
6110;DHT22;3085;49.444;11.054;2024-03-25T06:56:13;5.20;99.90
6110;DHT22;3085;49.444;11.054;2024-03-25T06:58:40;5.10;99.90
6110;DHT22;3085;49.444;11.054;2024-03-25T07:01:07;5.20;99.90
6110;DHT22;3085;49.444;11.054;2024-03-25T07:03:35;5.80;99.90
6110;DHT22;3085;49.444;11.054;2024-03-25T07:06:01;5.30;99.90
6110;DHT22;3085;49.444;11.054;2024-03-25T07:08:27;5.40;99.90
6110;DHT22;3085;49.444;11.054;2024-03-25T07:10:53;5.40;99.90
6110;DHT22;3085;49.444;11.054;2024-03-25T07:13:19;5.40;99.90
6110;DHT22;3085;49.444;11.054;2024-03-25T07:15:47;5.50;99.90
6110;DHT22;3085;49.444;11.054;2024-03-25T07:18:13;5.50;99.90
6110;DHT22;3085;49.444;11.054;2024-03-25T07:20:39;5.50;99.90
6110;DHT22;3085;49.444;11.054;2024-03-25T07:23:04;5.60;99.90
6110;DHT22;3085;49.444;11.054;2024-03-25T07:25:31;5.70;99.90
6110;DHT22;3085;49.444;11.054;2024-03-25T07:27:56;5.80;99.90
6110;DHT22;3085;49.444;11.054;2024-03-25T07:30:23;5.90;99.90
6110;DHT22;3085;49.444;11.054;2024-03-25T07:32:50;5.90;99.90
6110;DHT22;3085;49.444;11.054;2024-03-25T07:35:16;6.00;99.90
6110;DHT22;3085;49.444;11.054;2024-03-25T07:37:42;6.20;99.90
6110;DHT22;3085;49.444;11.054;2024-03-25T07:40:08;6.20;99.90
6110;DHT22;3085;49.444;11.054;2024-03-25T07:42:35;6.20;99.90
6110;DHT22;3085;49.444;11.054;2024-03-25T07:45:01;6.30;99.90
6110;DHT22;3085;49.444;11.054;2024-03-25T07:47:26;6.30;99.90
6110;DHT22;3085;49.444;11.054;2024-03-25T07:49:53;6.40;99.90
6110;DHT22;3085;49.444;11.054;2024-03-25T07:52:19;6.50;99.90
6110;DHT22;3085;49.444;11.054;2024-03-25T07:54:45;6.50;99.90
6110;DHT22;3085;49.444;11.054;2024-03-25T07:57:11;6.50;99.90
6110;DHT22;3085;49.444;11.054;2024-03-25T07:59:36;6.60;99.90
6110;DHT22;3085;49.444;11.054;2024-03-25T08:02:03;6.70;99.90
6110;DHT22;3085;49.444;11.054;2024-03-25T08:04:28;6.60;99.90
6110;DHT22;3085;49.444;11.054;2024-03-25T08:06:56;6.50;99.90
6110;DHT22;3085;49.444;11.054;2024-03-25T08:09:21;6.40;99.90
6110;DHT22;3085;49.444;11.054;2024-03-25T08:11:47;6.50;99.90
6110;DHT22;3085;49.444;11.054;2024-03-25T08:14:13;6.80;99.90
6110;DHT22;3085;49.444;11.054;2024-03-25T08:16:39;6.80;99.90
6110;DHT22;3085;49.444;11.054;2024-03-25T08:19:04;6.80;99.90
6110;DHT22;3085;49.444;11.054;2024-03-25T08:21:30;6.80;99.90
6110;DHT22;3085;49.444;11.054;2024-03-25T08:23:57;7.00;99.90
6110;DHT22;3085;49.444;11.054;2024-03-25T08:26:23;6.80;99.90
6110;DHT22;3085;49.444;11.054;2024-03-25T08:28:49;6.80;99.90
6110;DHT22;3085;49.444;11.054;2024-03-25T08:31:15;6.80;99.90
6110;DHT22;3085;49.444;11.054;2024-03-25T08:33:41;6.90;99.90
6110;DHT22;3085;49.444;11.054;2024-03-25T08:36:06;6.90;99.90
6110;DHT22;3085;49.444;11.054;2024-03-25T08:38:32;7.00;99.90
6110;DHT22;3085;49.444;11.054;2024-03-25T08:40:59;6.90;99.90
6110;DHT22;3085;49.444;11.054;2024-03-25T08:43:25;6.90;99.90
6110;DHT22;3085;49.444;11.054;2024-03-25T08:45:51;7.00;99.90
6110;DHT22;3085;49.444;11.054;2024-03-25T08:48:17;7.00;99.90
6110;DHT22;3085;49.444;11.054;2024-03-25T08:50:43;7.00;99.90
6110;DHT22;3085;49.444;11.054;2024-03-25T08:53:09;7.00;99.90
6110;DHT22;3085;49.444;11.054;2024-03-25T08:55:35;6.90;99.90
6110;DHT22;3085;49.444;11.054;2024-03-25T08:58:02;6.90;99.90
6110;DHT22;3085;49.444;11.054;2024-03-25T09:00:28;7.00;99.90
6110;DHT22;3085;49.444;11.054;2024-03-25T09:02:54;7.10;99.90
6110;DHT22;3085;49.444;11.054;2024-03-25T09:05:20;7.10;99.90
6110;DHT22;3085;49.444;11.054;2024-03-25T09:07:48;7.10;99.90
6110;DHT22;3085;49.444;11.054;2024-03-25T09:10:15;7.00;99.90
6110;DHT22;3085;49.444;11.054;2024-03-25T09:12:59;7.10;99.90
6110;DHT22;3085;49.444;11.054;2024-03-25T09:15:26;7.10;99.90
6110;DHT22;3085;49.444;11.054;2024-03-25T09:17:52;7.10;99.90
6110;DHT22;3085;49.444;11.054;2024-03-25T09:20:18;7.00;99.90
6110;DHT22;3085;49.444;11.054;2024-03-25T09:22:44;7.10;99.90
6110;DHT22;3085;49.444;11.054;2024-03-25T09:25:09;7.20;99.90
6110;DHT22;3085;49.444;11.054;2024-03-25T09:27:35;7.30;99.90
6110;DHT22;3085;49.444;11.054;2024-03-25T09:30:01;7.50;99.90
6110;DHT22;3085;49.444;11.054;2024-03-25T09:32:28;7.40;99.90
6110;DHT22;3085;49.444;11.054;2024-03-25T09:34:54;7.50;99.90
6110;DHT22;3085;49.444;11.054;2024-03-25T09:37:20;7.50;99.90
6110;DHT22;3085;49.444;11.054;2024-03-25T09:39:46;7.50;99.90
6110;DHT22;3085;49.444;11.054;2024-03-25T09:42:14;7.40;99.90
6110;DHT22;3085;49.444;11.054;2024-03-25T09:44:41;7.40;99.90
6110;DHT22;3085;49.444;11.054;2024-03-25T09:47:07;7.40;99.90
6110;DHT22;3085;49.444;11.054;2024-03-25T09:49:35;7.50;99.90
6110;DHT22;3085;49.444;11.054;2024-03-25T09:52:02;7.60;99.90
6110;DHT22;3085;49.444;11.054;2024-03-25T09:54:28;7.60;99.90
6110;DHT22;3085;49.444;11.054;2024-03-25T09:56:54;7.40;99.90
6110;DHT22;3085;49.444;11.054;2024-03-25T09:59:20;7.50;99.90
6110;DHT22;3085;49.444;11.054;2024-03-25T10:01:46;7.40;99.90
6110;DHT22;3085;49.444;11.054;2024-03-25T10:04:12;7.40;99.90
6110;DHT22;3085;49.444;11.054;2024-03-25T10:06:40;7.40;99.90
6110;DHT22;3085;49.444;11.054;2024-03-25T10:09:06;7.60;99.90
6110;DHT22;3085;49.444;11.054;2024-03-25T10:11:32;7.70;99.90
6110;DHT22;3085;49.444;11.054;2024-03-25T10:13:58;7.80;99.90
6110;DHT22;3085;49.444;11.054;2024-03-25T10:16:23;7.80;99.90
6110;DHT22;3085;49.444;11.054;2024-03-25T10:18:49;7.90;99.90
6110;DHT22;3085;49.444;11.054;2024-03-25T10:21:19;8.00;99.90
6110;DHT22;3085;49.444;11.054;2024-03-25T10:23:47;8.10;99.90
6110;DHT22;3085;49.444;11.054;2024-03-25T10:26:25;8.30;99.90
6110;DHT22;3085;49.444;11.054;2024-03-25T10:28:59;8.60;99.90
6110;DHT22;3085;49.444;11.054;2024-03-25T10:31:25;8.50;99.90
6110;DHT22;3085;49.444;11.054;2024-03-25T10:33:51;8.50;99.90
6110;DHT22;3085;49.444;11.054;2024-03-25T10:36:17;8.60;99.90
6110;DHT22;3085;49.444;11.054;2024-03-25T10:38:44;8.60;99.90
6110;DHT22;3085;49.444;11.054;2024-03-25T10:41:13;8.60;99.90
6110;DHT22;3085;49.444;11.054;2024-03-25T10:43:43;8.50;99.90
6110;DHT22;3085;49.444;11.054;2024-03-25T10:46:09;8.50;99.90
6110;DHT22;3085;49.444;11.054;2024-03-25T10:48:37;8.70;99.90
6110;DHT22;3085;49.444;11.054;2024-03-25T10:51:05;8.60;99.90
6110;DHT22;3085;49.444;11.054;2024-03-25T10:53:32;8.90;99.90
6110;DHT22;3085;49.444;11.054;2024-03-25T10:56:01;8.90;99.90
6110;DHT22;3085;49.444;11.054;2024-03-25T10:58:28;8.80;99.90
6110;DHT22;3085;49.444;11.054;2024-03-25T11:00:55;8.70;99.90
6110;DHT22;3085;49.444;11.054;2024-03-25T11:03:21;8.80;99.90
6110;DHT22;3085;49.444;11.054;2024-03-25T11:05:48;8.80;99.90
6110;DHT22;3085;49.444;11.054;2024-03-25T11:08:17;8.80;99.90
6110;DHT22;3085;49.444;11.054;2024-03-25T11:10:44;8.60;99.90
6110;DHT22;3085;49.444;11.054;2024-03-25T11:13:11;8.70;99.90
6110;DHT22;3085;49.444;11.054;2024-03-25T11:15:40;8.80;99.90
6110;DHT22;3085;49.444;11.054;2024-03-25T11:18:11;8.90;99.90
6110;DHT22;3085;49.444;11.054;2024-03-25T11:20:37;9.00;99.90
6110;DHT22;3085;49.444;11.054;2024-03-25T11:23:08;9.20;99.90
6110;DHT22;3085;49.444;11.054;2024-03-25T11:25:34;9.10;99.90
6110;DHT22;3085;49.444;11.054;2024-03-25T11:28:00;9.00;99.90
6110;DHT22;3085;49.444;11.054;2024-03-25T11:30:26;9.10;99.90
6110;DHT22;3085;49.444;11.054;2024-03-25T11:32:54;9.10;99.90
6110;DHT22;3085;49.444;11.054;2024-03-25T11:35:20;9.00;99.90
6110;DHT22;3085;49.444;11.054;2024-03-25T11:37:47;9.00;99.90
6110;DHT22;3085;49.444;11.054;2024-03-25T11:40:13;9.20;99.90
6110;DHT22;3085;49.444;11.054;2024-03-25T11:42:40;9.10;99.90
6110;DHT22;3085;49.444;11.054;2024-03-25T11:45:06;9.20;99.90
6110;DHT22;3085;49.444;11.054;2024-03-25T11:47:32;9.20;99.90
6110;DHT22;3085;49.444;11.054;2024-03-25T11:49:59;9.20;99.90
6110;DHT22;3085;49.444;11.054;2024-03-25T11:52:30;9.20;99.90
6110;DHT22;3085;49.444;11.054;2024-03-25T11:54:55;9.20;99.90
6110;DHT22;3085;49.444;11.054;2024-03-25T11:57:22;9.30;99.90
6110;DHT22;3085;49.444;11.054;2024-03-25T11:59:48;9.40;99.90
6110;DHT22;3085;49.444;11.054;2024-03-25T12:02:15;9.30;99.90
6110;DHT22;3085;49.444;11.054;2024-03-25T12:04:42;9.40;99.90
6110;DHT22;3085;49.444;11.054;2024-03-25T12:07:12;9.30;99.90
6110;DHT22;3085;49.444;11.054;2024-03-25T12:09:38;9.40;99.90
6110;DHT22;3085;49.444;11.054;2024-03-25T12:12:22;9.40;99.90
6110;DHT22;3085;49.444;11.054;2024-03-25T12:14:49;9.60;99.90
6110;DHT22;3085;49.444;11.054;2024-03-25T12:17:15;9.80;99.90
6110;DHT22;3085;49.444;11.054;2024-03-25T12:19:41;9.70;99.90
6110;DHT22;3085;49.444;11.054;2024-03-25T12:22:07;9.80;99.90
6110;DHT22;3085;49.444;11.054;2024-03-25T12:24:34;9.80;99.90
6110;DHT22;3085;49.444;11.054;2024-03-25T12:27:00;9.70;99.90
6110;DHT22;3085;49.444;11.054;2024-03-25T12:29:26;9.60;99.90
6110;DHT22;3085;49.444;11.054;2024-03-25T12:31:55;9.90;99.90
6110;DHT22;3085;49.444;11.054;2024-03-25T12:34:21;10.00;99.90
6110;DHT22;3085;49.444;11.054;2024-03-25T12:36:48;10.10;99.90
6110;DHT22;3085;49.444;11.054;2024-03-25T12:39:17;10.10;99.90
6110;DHT22;3085;49.444;11.054;2024-03-25T12:41:45;9.80;99.90
6110;DHT22;3085;49.444;11.054;2024-03-25T12:44:12;9.90;99.90
6110;DHT22;3085;49.444;11.054;2024-03-25T12:46:38;10.10;99.90
6110;DHT22;3085;49.444;11.054;2024-03-25T12:49:04;10.30;99.90
6110;DHT22;3085;49.444;11.054;2024-03-25T12:51:30;10.60;99.90
6110;DHT22;3085;49.444;11.054;2024-03-25T12:53:56;10.50;99.90
6110;DHT22;3085;49.444;11.054;2024-03-25T12:56:22;10.30;99.90
6110;DHT22;3085;49.444;11.054;2024-03-25T12:58:49;10.40;99.90
6110;DHT22;3085;49.444;11.054;2024-03-25T13:01:14;10.50;99.90
6110;DHT22;3085;49.444;11.054;2024-03-25T13:03:41;10.60;99.90
6110;DHT22;3085;49.444;11.054;2024-03-25T13:06:07;10.40;99.90
6110;DHT22;3085;49.444;11.054;2024-03-25T13:08:32;10.00;99.90
6110;DHT22;3085;49.444;11.054;2024-03-25T13:10:58;10.10;99.90
6110;DHT22;3085;49.444;11.054;2024-03-25T13:13:24;10.30;99.90
6110;DHT22;3085;49.444;11.054;2024-03-25T13:15:51;10.30;99.90
6110;DHT22;3085;49.444;11.054;2024-03-25T13:18:17;10.20;99.90
6110;DHT22;3085;49.444;11.054;2024-03-25T13:20:43;10.30;99.90
6110;DHT22;3085;49.444;11.054;2024-03-25T13:23:09;10.40;99.90
6110;DHT22;3085;49.444;11.054;2024-03-25T13:25:35;10.30;99.90
6110;DHT22;3085;49.444;11.054;2024-03-25T13:28:00;10.10;99.80
6110;DHT22;3085;49.444;11.054;2024-03-25T13:30:26;10.50;99.90
6110;DHT22;3085;49.444;11.054;2024-03-25T13:32:54;10.40;99.70
6110;DHT22;3085;49.444;11.054;2024-03-25T13:35:19;10.50;98.90
6110;DHT22;3085;49.444;11.054;2024-03-25T13:37:45;10.80;98.50
6110;DHT22;3085;49.444;11.054;2024-03-25T13:40:11;10.90;98.90
6110;DHT22;3085;49.444;11.054;2024-03-25T13:42:37;10.90;98.00
6110;DHT22;3085;49.444;11.054;2024-03-25T13:45:03;11.00;98.20
6110;DHT22;3085;49.444;11.054;2024-03-25T13:47:29;11.10;96.90
6110;DHT22;3085;49.444;11.054;2024-03-25T13:50:03;11.50;99.90
6110;DHT22;3085;49.444;11.054;2024-03-25T13:52:29;11.60;97.30
6110;DHT22;3085;49.444;11.054;2024-03-25T13:54:55;11.60;97.60
6110;DHT22;3085;49.444;11.054;2024-03-25T13:57:21;11.50;96.80
6110;DHT22;3085;49.444;11.054;2024-03-25T13:59:47;11.50;96.60
6110;DHT22;3085;49.444;11.054;2024-03-25T14:02:13;11.50;96.90
6110;DHT22;3085;49.444;11.054;2024-03-25T14:04:38;11.60;97.80
6110;DHT22;3085;49.444;11.054;2024-03-25T14:07:06;11.90;98.00
6110;DHT22;3085;49.444;11.054;2024-03-25T14:09:31;11.90;97.30
6110;DHT22;3085;49.444;11.054;2024-03-25T14:11:57;12.00;96.80
6110;DHT22;3085;49.444;11.054;2024-03-25T14:14:23;12.10;96.90
6110;DHT22;3085;49.444;11.054;2024-03-25T14:16:49;12.00;95.80
6110;DHT22;3085;49.444;11.054;2024-03-25T14:19:15;12.00;96.40
6110;DHT22;3085;49.444;11.054;2024-03-25T14:21:40;11.90;95.80
6110;DHT22;3085;49.444;11.054;2024-03-25T14:24:08;12.30;97.00
6110;DHT22;3085;49.444;11.054;2024-03-25T14:26:34;12.50;97.90
6110;DHT22;3085;49.444;11.054;2024-03-25T14:29:00;12.70;96.60
6110;DHT22;3085;49.444;11.054;2024-03-25T14:31:26;12.50;95.50
6110;DHT22;3085;49.444;11.054;2024-03-25T14:33:51;12.20;94.40
6110;DHT22;3085;49.444;11.054;2024-03-25T14:36:17;12.30;95.40
6110;DHT22;3085;49.444;11.054;2024-03-25T14:38:43;12.40;95.80
6110;DHT22;3085;49.444;11.054;2024-03-25T14:41:11;12.60;95.90
6110;DHT22;3085;49.444;11.054;2024-03-25T14:43:37;12.80;95.60
6110;DHT22;3085;49.444;11.054;2024-03-25T14:46:03;12.60;95.40
6110;DHT22;3085;49.444;11.054;2024-03-25T14:48:29;12.90;95.50
6110;DHT22;3085;49.444;11.054;2024-03-25T14:50:55;12.80;94.10
6110;DHT22;3085;49.444;11.054;2024-03-25T14:53:21;12.50;93.60
6110;DHT22;3085;49.444;11.054;2024-03-25T14:55:47;12.40;93.70
6110;DHT22;3085;49.444;11.054;2024-03-25T14:58:14;12.20;93.30
6110;DHT22;3085;49.444;11.054;2024-03-25T15:00:39;12.30;93.50
6110;DHT22;3085;49.444;11.054;2024-03-25T15:03:06;12.40;93.20
6110;DHT22;3085;49.444;11.054;2024-03-25T15:05:32;12.20;93.30
6110;DHT22;3085;49.444;11.054;2024-03-25T15:07:58;12.40;93.70
6110;DHT22;3085;49.444;11.054;2024-03-25T15:10:24;12.30;93.20
6110;DHT22;3085;49.444;11.054;2024-03-25T15:12:49;12.40;93.40
6110;DHT22;3085;49.444;11.054;2024-03-25T15:15:17;12.50;93.90
6110;DHT22;3085;49.444;11.054;2024-03-25T15:17:43;12.60;93.70
6110;DHT22;3085;49.444;11.054;2024-03-25T15:20:09;12.30;92.80
6110;DHT22;3085;49.444;11.054;2024-03-25T15:22:35;12.30;94.30
6110;DHT22;3085;49.444;11.054;2024-03-25T15:25:01;12.80;94.00
6110;DHT22;3085;49.444;11.054;2024-03-25T15:27:27;12.60;92.90
6110;DHT22;3085;49.444;11.054;2024-03-25T15:29:52;12.70;93.60
6110;DHT22;3085;49.444;11.054;2024-03-25T15:32:20;12.70;93.20
6110;DHT22;3085;49.444;11.054;2024-03-25T15:34:45;12.60;93.30
6110;DHT22;3085;49.444;11.054;2024-03-25T15:37:11;12.90;93.50
6110;DHT22;3085;49.444;11.054;2024-03-25T15:39:37;12.70;92.80
6110;DHT22;3085;49.444;11.054;2024-03-25T15:42:03;12.40;93.20
6110;DHT22;3085;49.444;11.054;2024-03-25T15:44:29;12.80;93.70
6110;DHT22;3085;49.444;11.054;2024-03-25T15:46:55;12.80;92.90
6110;DHT22;3085;49.444;11.054;2024-03-25T15:49:22;12.90;93.30
6110;DHT22;3085;49.444;11.054;2024-03-25T15:51:48;13.00;92.80